createdAt,value
2019-04-04T00:00:29.797Z,100059.15
2019-04-04T00:03:03.505Z,100043.27
2019-04-04T00:05:37.248Z,100057.37
2019-04-04T00:08:10.970Z,100057.37
2019-04-04T00:10:44.780Z,100020.64
2019-04-04T00:13:18.488Z,100010.23
2019-04-04T00:15:52.501Z,100010.23
2019-04-04T00:18:27.367Z,100014.65
2019-04-04T00:21:02.745Z,100014.65
2019-04-04T00:23:37.949Z,99996.81
2019-04-04T00:26:12.260Z,99985.41
2019-04-04T00:28:46.610Z,99978.63
2019-04-04T00:31:20.392Z,99978.63
2019-04-04T00:33:55.961Z,99969.66
2019-04-04T00:36:30.065Z,99986.97
2019-04-04T00:39:05.678Z,99977.70
2019-04-04T00:41:39.424Z,99958.88
2019-04-04T00:44:13.344Z,99949.55
2019-04-04T00:46:47.072Z,99970.70
2019-04-04T00:49:20.779Z,99978.36
2019-04-04T00:51:54.523Z,99978.36
2019-04-04T00:54:28.535Z,99981.89
2019-04-04T00:57:02.598Z,99967.27
2019-04-04T00:59:36.302Z,99991.45
2019-04-04T01:02:10.037Z,99991.45
2019-04-04T01:04:43.987Z,99977.36
2019-04-04T01:07:17.743Z,99977.36
2019-04-04T01:09:51.442Z,99981.63
2019-04-04T01:12:25.192Z,99973.83
2019-04-04T01:15:00.167Z,99961.81
2019-04-04T01:17:35.071Z,99958.36
2019-04-04T01:20:10.038Z,99960.17
2019-04-04T01:22:45.505Z,99961.89
2019-04-04T01:25:19.296Z,99978.34
2019-04-04T01:27:53.088Z,99978.34
2019-04-04T01:30:26.930Z,99975.97
2019-04-04T01:33:03.582Z,99963.35
2019-04-04T01:35:36.887Z,99963.35
2019-04-04T01:38:11.027Z,99957.77
2019-04-04T01:40:44.923Z,99944.62
2019-04-04T01:43:18.781Z,99940.52
2019-04-04T01:45:52.998Z,99956.05
2019-04-04T01:48:26.969Z,99961.33
2019-04-04T01:51:00.729Z,99965.07
2019-04-04T01:53:34.471Z,99965.07
2019-04-04T01:56:08.249Z,99982.46
2019-04-04T01:58:42.347Z,99987.27
2019-04-04T02:01:16.620Z,99989.10
2019-04-04T02:03:51.815Z,99999.84
2019-04-04T02:06:28.368Z,100008.77
2019-04-04T02:09:02.836Z,99987.29
2019-04-04T02:11:37.974Z,99968.06
2019-04-04T02:14:12.492Z,99958.95
2019-04-04T02:16:50.951Z,99952.52
2019-04-04T02:19:24.533Z,99949.97
2019-04-04T02:21:59.873Z,99947.42
2019-04-04T02:24:34.001Z,99943.00
2019-04-04T02:27:08.058Z,99934.09
2019-04-04T02:29:42.484Z,99946.61
2019-04-04T02:32:17.920Z,99944.06
2019-04-04T02:34:51.867Z,99945.75
2019-04-04T02:37:25.719Z,99952.11
2019-04-04T02:40:02.890Z,99943.84
2019-04-04T02:42:36.731Z,99936.34
2019-04-04T02:45:10.878Z,99943.77
2019-04-04T02:47:50.315Z,99949.45
2019-04-04T02:50:22.167Z,99939.48
2019-04-04T02:52:56.033Z,99947.75
2019-04-04T02:55:30.957Z,99938.77
2019-04-04T02:58:05.097Z,99947.04
2019-04-04T03:00:39.076Z,99941.31
2019-04-04T03:03:13.005Z,99945.13
2019-04-04T03:05:50.813Z,99934.17
2019-04-04T03:08:22.361Z,99926.05
2019-04-04T03:10:56.315Z,99929.38
2019-04-04T03:13:32.235Z,99933.05
2019-04-04T03:16:06.042Z,99930.64
2019-04-04T03:18:39.870Z,99928.06
2019-04-04T03:21:13.720Z,99918.33
2019-04-04T03:23:47.455Z,99921.63
2019-04-04T03:26:21.344Z,99918.20
2019-04-04T03:28:55.172Z,99911.50
2019-04-04T03:31:36.451Z,99918.51
2019-04-04T03:34:11.004Z,99926.66
2019-04-04T03:36:40.221Z,99914.16
2019-04-04T03:39:19.130Z,99907.38
2019-04-04T03:41:49.794Z,99906.61
2019-04-04T03:44:23.847Z,99907.37
2019-04-04T03:46:58.258Z,99913.12
2019-04-04T03:49:32.585Z,99922.98
2019-04-04T03:52:10.138Z,99920.85
2019-04-04T03:54:41.940Z,99922.13
2019-04-04T03:57:15.826Z,99928.14
2019-04-04T03:59:49.588Z,99928.17
2019-04-04T04:02:23.586Z,99928.44
2019-04-04T04:05:00.312Z,99925.14
2019-04-04T04:07:33.103Z,99918.08
2019-04-04T04:10:07.041Z,99916.06
2019-04-04T04:12:43.061Z,99927.27
2019-04-04T04:15:16.810Z,99925.57
2019-04-04T04:17:50.925Z,99917.76
2019-04-04T04:20:24.756Z,99928.97
2019-04-04T04:22:58.926Z,99930.30
2019-04-04T04:25:35.101Z,99924.53
2019-04-04T04:28:08.343Z,99925.67
2019-04-04T04:30:42.223Z,99922.02
2019-04-04T04:33:16.067Z,99911.70
2019-04-04T04:35:50.330Z,99921.10
2019-04-04T04:38:26.859Z,99933.52
2019-04-04T04:41:00.622Z,99940.17
2019-04-04T04:43:34.516Z,99954.16
2019-04-04T04:46:08.266Z,99962.28
2019-04-04T04:48:42.032Z,99956.80
2019-04-04T04:51:16.018Z,99948.96
2019-04-04T04:53:50.472Z,99939.19
2019-04-04T04:56:25.062Z,99942.69
2019-04-04T04:58:59.241Z,99942.28
2019-04-04T05:01:33.016Z,99948.65
2019-04-04T05:04:06.960Z,99954.63
2019-04-04T05:06:40.850Z,99955.48
2019-04-04T05:09:14.760Z,99969.30
2019-04-04T05:11:50.240Z,99965.19
2019-04-04T05:14:24.532Z,99958.98
2019-04-04T05:16:58.746Z,99960.08
2019-04-04T05:19:32.696Z,99953.66
2019-04-04T05:22:07.109Z,99954.92
2019-04-04T05:24:43.169Z,99955.91
2019-04-04T05:27:17.059Z,99952.68
2019-04-04T05:29:51.120Z,99958.33
2019-04-04T05:32:25.140Z,99950.19
2019-04-04T05:35:00.990Z,99937.15
2019-04-04T05:37:37.862Z,99938.70
2019-04-04T05:40:11.102Z,99938.84
2019-04-04T05:42:45.150Z,99943.76
2019-04-04T05:45:19.045Z,99937.77
2019-04-04T05:47:55.074Z,99943.77
2019-04-04T05:50:28.395Z,99943.77
2019-04-04T05:53:04.340Z,99948.28
2019-04-04T05:55:37.972Z,99951.22
2019-04-04T05:58:11.818Z,99952.20
2019-04-04T06:00:47.586Z,99956.61
2019-04-04T06:03:21.312Z,99959.52
2019-04-04T06:05:55.167Z,99963.13
2019-04-04T06:08:29.260Z,99965.02
2019-04-04T06:11:03.356Z,99965.50
2019-04-04T06:13:37.460Z,99978.73
2019-04-04T06:16:11.247Z,99994.77
2019-04-04T06:18:44.993Z,99994.77
2019-04-04T06:21:19.252Z,100007.41
2019-04-04T06:23:53.894Z,100004.53
2019-04-04T06:26:28.623Z,100000.09
2019-04-04T06:29:05.422Z,100002.27
2019-04-04T06:31:38.127Z,100004.82
2019-04-04T06:34:12.052Z,100004.82
2019-04-04T06:36:47.005Z,100005.08
2019-04-04T06:39:23.008Z,100005.08
2019-04-04T06:41:57.403Z,100001.82
2019-04-04T06:44:31.253Z,100008.97
2019-04-04T06:47:05.277Z,100011.30
2019-04-04T06:49:39.054Z,100013.06
2019-04-04T06:52:12.957Z,100017.40
2019-04-04T06:54:47.003Z,100004.94
2019-04-04T06:57:20.857Z,100002.18
2019-04-04T06:59:54.741Z,100002.18
2019-04-04T07:02:28.555Z,99995.67
2019-04-04T07:05:04.130Z,99982.19
2019-04-04T07:07:37.973Z,99971.20
2019-04-04T07:10:12.251Z,99971.20
2019-04-04T07:12:48.850Z,99976.77
2019-04-04T07:15:21.560Z,99965.11
2019-04-04T07:17:55.403Z,99953.76
2019-04-04T07:20:29.504Z,99974.09
2019-04-04T07:23:03.411Z,99988.94
2019-04-04T07:25:38.103Z,100002.95
2019-04-04T07:28:13.165Z,100016.52
2019-04-04T07:30:47.006Z,100018.03
2019-04-04T07:33:21.486Z,100016.25
2019-04-04T07:35:55.406Z,100016.80
2019-04-04T07:38:29.425Z,100022.48
2019-04-04T07:41:03.504Z,100026.61
2019-04-04T07:43:39.379Z,100027.13
2019-04-04T07:46:16.570Z,100046.99
2019-04-04T07:48:51.301Z,100046.99
2019-04-04T07:51:24.229Z,100047.07
2019-04-04T07:53:58.027Z,100054.35
2019-04-04T07:56:31.988Z,100053.49
2019-04-04T07:59:05.802Z,100055.76
2019-04-04T08:01:50.625Z,100055.76
2019-04-04T08:04:15.823Z,100055.06
2019-04-04T08:06:49.709Z,100055.48
2019-04-04T08:09:26.099Z,100055.48
2019-04-04T08:11:59.528Z,100049.82
2019-04-04T08:14:34.007Z,100058.47
2019-04-04T08:17:07.754Z,100058.47
2019-04-04T08:19:41.807Z,100057.53
2019-04-04T08:22:15.674Z,100059.02
2019-04-04T08:24:49.604Z,100056.66
2019-04-04T08:27:23.322Z,100063.94
2019-04-04T08:29:57.164Z,100061.55
2019-04-04T08:32:30.894Z,100059.41
2019-04-04T08:35:05.710Z,100058.44
2019-04-04T08:37:39.452Z,100062.20
2019-04-04T08:40:13.492Z,100069.33
2019-04-04T08:42:47.479Z,100078.11
2019-04-04T08:45:21.305Z,100073.34
2019-04-04T08:47:55.366Z,100076.89
2019-04-04T08:50:29.278Z,100070.84
2019-04-04T08:53:03.007Z,100083.20
2019-04-04T08:55:37.148Z,100086.32
2019-04-04T08:58:11.335Z,100084.47
2019-04-04T09:00:45.311Z,100084.75
2019-04-04T09:03:19.070Z,100102.89
2019-04-04T09:05:52.964Z,100107.16
2019-04-04T09:08:26.836Z,100121.92
2019-04-04T09:11:00.650Z,100130.59
2019-04-04T09:13:34.484Z,100141.16
2019-04-04T09:16:08.472Z,100150.36
2019-04-04T09:18:42.204Z,100153.37
2019-04-04T09:21:16.148Z,100168.40
2019-04-04T09:23:49.965Z,100169.09
2019-04-04T09:26:23.829Z,100171.09
2019-04-04T09:28:57.601Z,100170.28
2019-04-04T09:31:31.407Z,100170.98
2019-04-04T09:34:05.237Z,100170.33
2019-04-04T09:36:39.040Z,100154.83
2019-04-04T09:39:12.779Z,100150.00
2019-04-04T09:41:46.586Z,100142.98
2019-04-04T09:44:20.352Z,100147.72
2019-04-04T09:47:04.796Z,100142.50
2019-04-04T09:49:29.747Z,100153.02
2019-04-04T09:52:04.040Z,100156.70
2019-04-04T09:54:37.759Z,100148.94
2019-04-04T09:57:11.574Z,100153.95
2019-04-04T09:59:45.871Z,100154.58
2019-04-04T10:02:19.757Z,100161.09
2019-04-04T10:04:53.944Z,100160.00
2019-04-04T10:07:27.877Z,100160.73
2019-04-04T10:10:01.935Z,100152.28
2019-04-04T10:12:35.788Z,100153.31
2019-04-04T10:15:09.742Z,100153.63
2019-04-04T10:17:43.833Z,100148.17
2019-04-04T10:20:17.786Z,100145.07
2019-04-04T10:22:51.833Z,100150.14
2019-04-04T10:25:25.763Z,100149.45
2019-04-04T10:27:59.677Z,100152.50
2019-04-04T10:30:34.166Z,100153.59
2019-04-04T10:33:08.168Z,100155.87
2019-04-04T10:35:41.981Z,100154.81
2019-04-04T10:38:15.764Z,100160.00
2019-04-04T10:40:49.709Z,100160.78
2019-04-04T10:43:23.624Z,100166.92
2019-04-04T10:45:57.488Z,100171.73
2019-04-04T10:48:31.291Z,100168.95
2019-04-04T10:51:05.227Z,100163.47
2019-04-04T10:53:39.430Z,100161.08
2019-04-04T10:56:13.289Z,100163.34
2019-04-04T10:58:47.106Z,100156.45
2019-04-04T11:01:21.241Z,100154.35
2019-04-04T11:03:55.110Z,100156.27
2019-04-04T11:06:29.164Z,100157.02
2019-04-04T11:09:04.940Z,100158.66
2019-04-04T11:11:38.742Z,100164.82
2019-04-04T11:14:12.875Z,100165.81
2019-04-04T11:16:46.767Z,100160.48
2019-04-04T11:21:56.106Z,100163.75
2019-04-04T11:23:46.535Z,100160.02
2019-04-04T11:24:30.163Z,100169.80
2019-04-04T11:27:04.039Z,100171.41
2019-04-04T11:29:37.842Z,100161.93
2019-04-04T11:32:11.727Z,100163.80
2019-04-04T11:34:53.196Z,100161.02
2019-04-04T11:37:21.297Z,100172.63
2019-04-04T11:39:55.376Z,100167.44
2019-04-04T11:42:29.661Z,100169.38
2019-04-04T11:45:03.482Z,100173.08
2019-04-04T11:47:37.392Z,100163.44
2019-04-04T11:50:11.615Z,100166.42
2019-04-04T11:52:45.587Z,100162.25
2019-04-04T11:55:19.531Z,100167.59
2019-04-04T11:57:53.370Z,100175.69
2019-04-04T12:00:32.877Z,100179.25
2019-04-04T12:03:06.908Z,100178.05
2019-04-04T12:05:40.638Z,100179.83
2019-04-04T12:08:14.515Z,100177.72
2019-04-04T12:10:48.547Z,100183.83
2019-04-04T12:13:22.399Z,100185.55
2019-04-04T12:15:56.115Z,100187.95
2019-04-04T12:18:29.980Z,100207.38
2019-04-04T12:21:03.691Z,100210.77
2019-04-04T12:23:37.458Z,100213.02
2019-04-04T12:26:11.213Z,100208.43
2019-04-04T12:28:45.045Z,100209.87
2019-04-04T12:31:18.966Z,100203.84
2019-04-04T12:33:53.119Z,100208.34
2019-04-04T12:36:26.885Z,100207.86
2019-04-04T12:39:00.634Z,100207.12
2019-04-04T12:41:34.379Z,100203.69
2019-04-04T12:44:08.303Z,100195.67
2019-04-04T12:46:42.576Z,100202.26
2019-04-04T12:49:16.480Z,100196.31
2019-04-04T12:51:50.272Z,100191.73
2019-04-04T12:54:24.208Z,100195.06
2019-04-04T12:56:57.988Z,100205.19
2019-04-04T12:59:34.557Z,100201.83
2019-04-04T13:02:08.448Z,100204.16
2019-04-04T13:04:42.604Z,100204.33
2019-04-04T13:07:16.461Z,100206.20
2019-04-04T13:09:50.357Z,100207.55
2019-04-04T13:12:24.225Z,100206.53
2019-04-04T13:14:58.353Z,100209.13
2019-04-04T13:17:32.029Z,100205.25
2019-04-04T13:20:06.625Z,100209.46
2019-04-04T13:22:40.313Z,100215.91
2019-04-04T13:25:14.177Z,100220.14
2019-04-04T13:27:47.978Z,100218.27
2019-04-04T13:30:21.937Z,100223.80
2019-04-04T13:32:55.881Z,100224.66
2019-04-04T13:35:29.614Z,100236.16
2019-04-04T13:38:03.297Z,100235.44
2019-04-04T13:40:45.517Z,100245.66
2019-04-04T13:43:12.729Z,100254.61
2019-04-04T13:45:46.450Z,100254.58
2019-04-04T13:48:20.137Z,100247.16
2019-04-04T13:50:53.840Z,100237.48
2019-04-04T13:53:27.530Z,100236.77
2019-04-04T13:56:01.286Z,100237.00
2019-04-04T13:58:34.973Z,100235.29
2019-04-04T14:01:08.777Z,100233.48
2019-04-04T14:03:42.456Z,100241.22
2019-04-04T14:06:16.245Z,100243.42
2019-04-04T14:08:49.934Z,100239.06
2019-04-04T14:11:23.676Z,100246.43
2019-04-04T14:13:58.803Z,100237.88
2019-04-04T14:16:32.850Z,100228.42
2019-04-04T14:19:06.613Z,100225.47
2019-04-04T14:21:40.421Z,100246.22
2019-04-04T14:24:14.509Z,100254.94
2019-04-04T14:26:48.270Z,100244.37
2019-04-04T14:29:27.622Z,100227.91
2019-04-04T14:31:57.517Z,100232.95
2019-04-04T14:34:31.223Z,100234.41
2019-04-04T14:37:05.033Z,100230.45
2019-04-04T14:39:38.716Z,100233.05
2019-04-04T14:42:12.781Z,100232.75
2019-04-04T14:44:46.470Z,100236.59
2019-04-04T14:47:20.226Z,100232.31
2019-04-04T14:49:53.921Z,100240.96
2019-04-04T14:52:27.680Z,100252.11
2019-04-04T14:55:01.444Z,100259.59
2019-04-04T14:57:35.206Z,100266.49
2019-04-04T15:00:11.972Z,100281.37
2019-04-04T15:02:45.719Z,100282.11
2019-04-04T15:05:19.369Z,100284.31
2019-04-04T15:07:53.439Z,100276.95
2019-04-04T15:10:27.216Z,100275.05
2019-04-04T15:13:00.983Z,100275.08
2019-04-04T15:15:34.671Z,100288.47
2019-04-04T15:18:08.407Z,100288.09
2019-04-04T15:20:42.124Z,100291.91
2019-04-04T15:23:15.838Z,100297.78
2019-04-04T15:25:49.540Z,100300.28
2019-04-04T15:28:26.003Z,100303.10
2019-04-04T15:30:58.761Z,100310.39
2019-04-04T15:33:32.510Z,100307.22
2019-04-04T15:36:06.424Z,100297.49
2019-04-04T15:38:40.151Z,100293.70
2019-04-04T15:41:13.850Z,100306.64
2019-04-04T15:43:47.653Z,100316.44
2019-04-04T15:46:21.380Z,100320.13
2019-04-04T15:48:55.112Z,100315.76
2019-04-04T15:51:28.804Z,100322.88
2019-04-04T15:54:02.610Z,100316.04
2019-04-04T15:56:36.297Z,100324.82
2019-04-04T15:59:10.021Z,100327.73
2019-04-04T16:01:43.780Z,100317.26
2019-04-04T16:04:17.514Z,100323.14
2019-04-04T16:06:51.201Z,100337.03
2019-04-04T16:09:25.690Z,100340.72
2019-04-04T16:11:59.357Z,100347.61
2019-04-04T16:14:33.080Z,100356.05
2019-04-04T16:17:06.837Z,100359.09
2019-04-04T16:19:40.631Z,100361.30
2019-04-04T16:22:14.322Z,100368.70
2019-04-04T16:24:48.114Z,100362.46
2019-04-04T16:27:21.811Z,100365.92
2019-04-04T16:29:55.590Z,100368.97
2019-04-04T16:32:29.272Z,100354.58
2019-04-04T16:35:03.086Z,100355.14
2019-04-04T16:37:36.790Z,100369.91
2019-04-04T16:40:12.893Z,100369.31
2019-04-04T16:42:46.604Z,100375.41
2019-04-04T16:45:20.340Z,100365.34
2019-04-04T16:47:54.020Z,100363.58
2019-04-04T16:50:27.757Z,100370.52
2019-04-04T16:53:01.446Z,100367.62
2019-04-04T16:55:35.441Z,100365.92
2019-04-04T16:58:09.182Z,100370.88
2019-04-04T17:00:43.252Z,100383.86
2019-04-04T17:03:16.939Z,100383.30
2019-04-04T17:05:50.979Z,100384.94
2019-04-04T17:08:25.143Z,100384.02
2019-04-04T17:10:58.892Z,100384.50
2019-04-04T17:13:32.634Z,100392.16
2019-04-04T17:16:06.664Z,100395.11
2019-04-04T17:18:40.346Z,100397.91
2019-04-04T17:21:14.536Z,100395.13
2019-04-04T17:23:48.561Z,100396.14
2019-04-04T17:26:22.300Z,100398.62
2019-04-04T17:28:56.270Z,100401.53
2019-04-04T17:31:30.028Z,100395.16
2019-04-04T17:34:04.303Z,100392.81
2019-04-04T17:36:38.064Z,100380.27
2019-04-04T17:39:11.806Z,100380.27
2019-04-04T17:41:45.643Z,100383.60
2019-04-04T17:44:19.292Z,100371.13
2019-04-04T17:46:53.166Z,100371.13
2019-04-04T17:49:27.210Z,100372.31
2019-04-04T17:52:01.200Z,100363.95
2019-04-04T17:54:35.067Z,100364.59
2019-04-04T17:57:08.847Z,100364.59
2019-04-04T17:59:42.777Z,100372.53
2019-04-04T18:02:16.605Z,100365.40
2019-04-04T18:04:50.449Z,100368.89
2019-04-04T18:07:24.232Z,100367.80
2019-04-04T18:09:59.851Z,100400.81
2019-04-04T18:12:40.250Z,100415.14
2019-04-04T18:15:10.648Z,100415.14
2019-04-04T18:17:44.832Z,100431.00
2019-04-04T18:20:18.950Z,100453.48
2019-04-04T18:22:52.924Z,100456.94
2019-04-04T18:25:26.747Z,100465.99
2019-04-04T18:28:01.016Z,100465.99
2019-04-04T18:30:34.750Z,100477.67
2019-04-04T18:33:08.556Z,100477.67
2019-04-04T18:35:42.962Z,100474.86
2019-04-04T18:38:17.225Z,100482.35
2019-04-04T18:40:51.787Z,100487.06
2019-04-04T18:43:25.575Z,100487.06
2019-04-04T18:45:59.696Z,100474.23
2019-04-04T18:48:33.512Z,100474.23
2019-04-04T18:51:07.298Z,100487.06
2019-04-04T18:53:41.416Z,100483.16
2019-04-04T18:56:15.323Z,100485.17
2019-04-04T18:58:49.288Z,100485.17
2019-04-04T19:01:23.102Z,100473.52
2019-04-04T19:03:56.972Z,100475.98
2019-04-04T19:06:31.179Z,100475.98
2019-04-04T19:09:15.191Z,100490.42
2019-04-04T19:11:45.903Z,100503.22
2019-04-04T19:14:20.047Z,100514.15
2019-04-04T19:16:53.993Z,100506.91
2019-04-04T19:19:27.916Z,100506.91
2019-04-04T19:22:01.679Z,100515.30
2019-04-04T19:24:35.524Z,100515.95
2019-04-04T19:27:09.342Z,100521.14
2019-04-04T19:29:43.328Z,100525.80
2019-04-04T19:32:17.101Z,100525.80
2019-04-04T19:34:50.806Z,100523.11
2019-04-04T19:37:24.582Z,100529.44
2019-04-04T19:39:58.353Z,100516.88
2019-04-04T19:42:32.088Z,100519.66
2019-04-04T19:45:06.738Z,100507.59
2019-04-04T19:47:40.758Z,100507.59
2019-04-04T19:50:14.925Z,100519.08
2019-04-04T19:52:48.626Z,100522.74
2019-04-04T19:55:22.378Z,100522.74
2019-04-04T19:57:56.062Z,100515.20
2019-04-04T20:00:32.077Z,100516.78
2019-04-04T20:03:06.382Z,100501.73
2019-04-04T20:05:40.152Z,100494.16
2019-04-04T20:08:13.834Z,100507.11
2019-04-04T20:10:47.884Z,100532.75
2019-04-04T20:13:30.852Z,100518.71
2019-04-04T20:15:57.167Z,100503.83
2019-04-04T20:18:30.863Z,100512.84
2019-04-04T20:21:04.998Z,100516.28
2019-04-04T20:23:38.691Z,100538.77
2019-04-04T20:26:12.790Z,100535.72
2019-04-04T20:28:46.508Z,100535.72
2019-04-04T20:31:20.264Z,100542.80
2019-04-04T20:34:01.381Z,100525.29
2019-04-04T20:36:29.706Z,100539.13
2019-04-04T20:39:04.583Z,100514.84
2019-04-04T20:41:38.318Z,100524.71
2019-04-04T20:44:12.007Z,100535.83
2019-04-04T20:46:45.748Z,100535.83
2019-04-04T20:49:19.452Z,100564.41
2019-04-04T20:51:53.192Z,100564.41
2019-04-04T20:54:27.450Z,100558.08
2019-04-04T20:57:01.183Z,100551.36
2019-04-04T20:59:34.882Z,100558.86
2019-04-04T21:02:08.629Z,100556.61
2019-04-04T21:04:42.320Z,100556.61
2019-04-04T21:07:16.381Z,100552.27
2019-04-04T21:09:50.081Z,100559.91
2019-04-04T21:12:23.803Z,100559.91
2019-04-04T21:14:57.504Z,100559.73
2019-04-04T21:17:31.851Z,100559.73
2019-04-04T21:20:06.063Z,100541.28
2019-04-04T21:22:39.826Z,100541.28
2019-04-04T21:25:14.051Z,100557.36
2019-04-04T21:27:47.997Z,100557.36
2019-04-04T21:30:21.778Z,100569.09
2019-04-04T21:32:55.530Z,100569.15
2019-04-04T21:35:29.308Z,100578.17
2019-04-04T21:38:03.184Z,100587.59
2019-04-04T21:40:36.884Z,100591.76
2019-04-04T21:43:10.618Z,100591.76
2019-04-04T21:45:44.311Z,100577.57
2019-04-04T21:48:18.043Z,100565.38
2019-04-04T21:50:51.737Z,100565.38
2019-04-04T21:53:25.762Z,100584.36
2019-04-04T21:55:59.621Z,100584.36
2019-04-04T21:58:33.405Z,100573.37
2019-04-04T22:01:07.562Z,100560.19
2019-04-04T22:03:41.322Z,100560.21
2019-04-04T22:06:16.088Z,100570.13
2019-04-04T22:08:49.913Z,100558.52
2019-04-04T22:11:23.673Z,100549.23
2019-04-04T22:13:57.441Z,100546.44
2019-04-04T22:16:31.148Z,100549.48
2019-04-04T22:19:05.027Z,100551.31
2019-04-04T22:21:38.978Z,100555.11
2019-04-04T22:24:12.704Z,100555.11
2019-04-04T22:26:46.715Z,100555.28
2019-04-04T22:29:20.452Z,100574.09
2019-04-04T22:31:54.149Z,100586.73
2019-04-04T22:34:27.902Z,100586.73
2019-04-04T22:37:01.599Z,100599.42
2019-04-04T22:39:35.645Z,100588.64
2019-04-04T22:42:09.410Z,100588.64
2019-04-04T22:44:43.164Z,100595.63
2019-04-04T22:47:16.860Z,100595.63
2019-04-04T22:49:50.622Z,100604.62
2019-04-04T22:52:24.307Z,100604.62
2019-04-04T22:54:58.032Z,100601.58
2019-04-04T22:57:32.115Z,100610.41
2019-04-04T23:00:07.003Z,100610.41
2019-04-04T23:02:40.701Z,100601.38
2019-04-04T23:05:14.609Z,100604.67
2019-04-04T23:07:48.300Z,100604.67
2019-04-04T23:10:22.347Z,100602.72
2019-04-04T23:12:56.320Z,100604.55
2019-04-04T23:15:30.063Z,100610.98
2019-04-04T23:18:03.835Z,100599.17
2019-04-04T23:20:37.647Z,100607.92
2019-04-04T23:23:11.354Z,100604.02
2019-04-04T23:25:45.102Z,100627.09
2019-04-04T23:28:19.079Z,100634.78
2019-04-04T23:30:52.863Z,100634.78
2019-04-04T23:33:26.560Z,100606.34
2019-04-04T23:36:00.296Z,100595.35
2019-04-04T23:38:34.287Z,100595.35
2019-04-04T23:41:08.089Z,100596.69
2019-04-04T23:43:41.778Z,100596.33
2019-04-04T23:46:15.527Z,100598.03
2019-04-04T23:48:49.243Z,100602.22
2019-04-04T23:51:23.575Z,100616.95
2019-04-04T23:53:57.278Z,100624.28
2019-04-04T23:56:31.311Z,100644.45
2019-04-04T23:59:05.081Z,100644.45
